createdAt,value
2019-02-25T00:01:21.260Z,11.53
2019-02-25T00:03:48.308Z,13.50
2019-02-25T00:06:15.335Z,14.37
2019-02-25T00:08:42.404Z,13.60
2019-02-25T00:11:09.455Z,12.20
2019-02-25T00:13:36.509Z,11.60
2019-02-25T00:16:03.658Z,10.80
2019-02-25T00:18:30.712Z,13.73
2019-02-25T00:21:03.075Z,13.30
2019-02-25T00:23:31.304Z,11.63
2019-02-25T00:25:58.407Z,11.57
2019-02-25T00:28:25.451Z,10.50
2019-02-25T00:30:53.937Z,9.30
2019-02-25T00:33:20.945Z,11.60
2019-02-25T00:35:48.029Z,12.30
2019-02-25T00:38:15.795Z,12.47
2019-02-25T00:40:42.790Z,10.57
2019-02-25T00:43:09.892Z,13.63
2019-02-25T00:45:38.578Z,13.20
2019-02-25T00:48:05.631Z,13.33
2019-02-25T00:50:32.683Z,11.63
2019-02-25T00:53:01.466Z,10.80
2019-02-25T00:55:28.518Z,12.03
2019-02-25T00:57:55.574Z,11.83
2019-02-25T01:00:24.050Z,10.37
2019-02-25T01:02:51.602Z,12.17
2019-02-25T01:05:18.820Z,11.20
2019-02-25T01:07:45.906Z,9.90
2019-02-25T01:10:12.895Z,11.13
2019-02-25T01:12:40.051Z,11.87
2019-02-25T01:15:07.972Z,11.93
2019-02-25T01:17:34.973Z,10.60
2019-02-25T01:20:02.070Z,10.63
2019-02-25T01:22:29.117Z,10.50
2019-02-25T01:24:56.171Z,10.90
2019-02-25T01:27:23.235Z,9.33
2019-02-25T01:29:50.266Z,10.20
2019-02-25T01:32:17.316Z,10.23
2019-02-25T01:34:44.360Z,11.70
2019-02-25T01:37:11.409Z,11.33
2019-02-25T01:39:38.464Z,15.37
2019-02-25T01:42:05.506Z,10.43
2019-02-25T01:44:32.555Z,8.13
2019-02-25T01:46:59.606Z,8.80
2019-02-25T01:49:26.652Z,10.77
2019-02-25T01:51:53.700Z,11.17
2019-02-25T01:54:20.696Z,10.10
2019-02-25T01:56:47.711Z,8.90
2019-02-25T01:59:14.791Z,9.47
2019-02-25T02:01:42.301Z,9.73
2019-02-25T02:04:09.356Z,10.80
2019-02-25T02:06:36.814Z,9.83
2019-02-25T02:09:03.966Z,9.33
2019-02-25T02:11:31.007Z,8.57
2019-02-25T02:13:58.056Z,8.63
2019-02-25T02:16:25.114Z,8.63
2019-02-25T02:18:52.164Z,6.40
2019-02-25T02:21:19.202Z,7.80
2019-02-25T02:23:46.258Z,16.27
2019-02-25T02:26:13.302Z,4.20
2019-02-25T02:28:40.713Z,10.00
2019-02-25T02:31:07.715Z,9.03
2019-02-25T02:33:34.754Z,10.13
2019-02-25T02:36:02.879Z,16.10
2019-02-25T02:38:29.873Z,15.17
2019-02-25T02:40:56.933Z,9.43
2019-02-25T02:43:23.974Z,13.90
2019-02-25T02:45:51.018Z,9.20
2019-02-25T02:48:22.067Z,8.83
2019-02-25T02:50:49.111Z,8.50
2019-02-25T02:53:16.157Z,8.17
2019-02-25T02:55:43.215Z,9.57
2019-02-25T02:58:10.255Z,8.53
2019-02-25T03:00:37.306Z,8.47
2019-02-25T03:03:04.359Z,10.10
2019-02-25T03:05:31.519Z,9.40
2019-02-25T03:07:58.550Z,8.67
2019-02-25T03:10:25.706Z,9.23
2019-02-25T03:12:52.751Z,9.50
2019-02-25T03:15:20.016Z,14.87
2019-02-25T03:17:47.052Z,14.20
2019-02-25T03:20:14.048Z,7.87
2019-02-25T03:22:41.155Z,9.33
2019-02-25T03:25:12.246Z,8.00
2019-02-25T03:27:39.324Z,7.23
2019-02-25T03:30:06.340Z,12.73
2019-02-25T03:32:33.439Z,8.37
2019-02-25T03:35:00.495Z,8.13
2019-02-25T03:37:27.540Z,7.23
2019-02-25T03:39:54.584Z,7.50
2019-02-25T03:42:21.635Z,12.03
2019-02-25T03:44:48.695Z,12.30
2019-02-25T03:47:15.742Z,13.50
2019-02-25T03:49:42.780Z,12.93
2019-02-25T03:52:09.833Z,7.77
2019-02-25T03:54:38.415Z,8.33
2019-02-25T03:57:05.463Z,6.93
2019-02-25T03:59:32.514Z,7.17
2019-02-25T04:02:00.735Z,7.63
2019-02-25T04:04:27.836Z,7.47
2019-02-25T04:06:56.520Z,7.80
2019-02-25T04:09:23.528Z,7.33
2019-02-25T04:11:50.616Z,12.17
2019-02-25T04:14:17.666Z,8.47
2019-02-25T04:16:44.816Z,7.57
2019-02-25T04:19:13.714Z,8.13
2019-02-25T04:21:40.706Z,12.17
2019-02-25T04:24:07.805Z,6.03
2019-02-25T04:26:34.889Z,7.20
2019-02-25T04:29:02.107Z,12.90
2019-02-25T04:31:29.160Z,12.40
2019-02-25T04:33:56.632Z,12.50
2019-02-25T04:36:23.662Z,7.67
2019-02-25T04:38:50.711Z,8.07
2019-02-25T04:41:17.761Z,3.87
2019-02-25T04:43:44.809Z,12.53
2019-02-25T04:46:11.961Z,7.10
2019-02-25T04:48:39.005Z,5.87
2019-02-25T04:51:06.161Z,6.13
2019-02-25T04:53:33.226Z,4.57
2019-02-25T04:56:00.252Z,7.17
2019-02-25T04:58:27.302Z,7.57
2019-02-25T05:00:55.170Z,3.80
2019-02-25T05:03:22.220Z,2.63
2019-02-25T05:05:49.275Z,6.10
2019-02-25T05:08:16.315Z,4.00
2019-02-25T05:10:43.363Z,4.27
2019-02-25T05:13:10.429Z,1.70
2019-02-25T05:15:37.567Z,5.70
2019-02-25T05:18:04.618Z,3.93
2019-02-25T05:20:31.659Z,4.73
2019-02-25T05:22:58.713Z,1.87
2019-02-25T05:25:25.723Z,5.83
2019-02-25T05:27:52.711Z,2.53
2019-02-25T05:30:19.712Z,13.27
2019-02-25T05:32:46.797Z,11.30
2019-02-25T05:35:14.053Z,13.00
2019-02-25T05:37:42.496Z,12.80
2019-02-25T05:40:13.393Z,3.63
2019-02-25T05:42:44.020Z,7.80
2019-02-25T05:45:11.157Z,3.03
2019-02-25T05:47:38.210Z,2.83
2019-02-25T05:50:07.047Z,8.60
2019-02-25T05:52:34.048Z,5.53
2019-02-25T05:55:01.092Z,14.20
2019-02-25T05:57:28.148Z,7.30
2019-02-25T05:59:57.957Z,15.33
2019-02-25T06:02:25.923Z,8.17
2019-02-25T06:04:52.971Z,5.10
2019-02-25T06:07:20.035Z,12.10
2019-02-25T06:09:47.535Z,12.03
2019-02-25T06:12:14.631Z,13.57
2019-02-25T06:14:41.802Z,5.17
2019-02-25T06:17:09.035Z,8.63
2019-02-25T06:19:38.079Z,21.07
2019-02-25T06:22:05.893Z,10.33
2019-02-25T06:24:33.046Z,6.50
2019-02-25T06:27:00.095Z,7.00
2019-02-25T06:29:27.110Z,5.00
2019-02-25T06:31:54.189Z,6.67
2019-02-25T06:34:21.256Z,6.50
2019-02-25T06:36:50.758Z,13.03
2019-02-25T06:39:18.718Z,7.27
2019-02-25T06:41:45.868Z,11.90
2019-02-25T06:44:12.924Z,5.97
2019-02-25T06:46:39.978Z,6.93
2019-02-25T06:49:07.014Z,8.53
2019-02-25T06:51:34.159Z,6.87
2019-02-25T06:54:01.211Z,9.60
2019-02-25T06:56:28.203Z,7.50
2019-02-25T06:58:55.204Z,8.07
2019-02-25T07:01:22.257Z,5.90
2019-02-25T07:03:49.415Z,6.70
2019-02-25T07:06:18.514Z,8.23
2019-02-25T07:09:05.384Z,8.60
2019-02-25T07:11:33.489Z,6.43
2019-02-25T07:14:00.639Z,6.90
2019-02-25T07:16:28.257Z,6.87
2019-02-25T07:19:00.934Z,7.10
2019-02-25T07:21:38.984Z,5.50
2019-02-25T07:24:05.987Z,7.37
2019-02-25T07:26:38.716Z,6.23
2019-02-25T07:29:11.604Z,5.63
2019-02-25T07:31:44.602Z,5.17
2019-02-25T07:34:16.689Z,7.50
2019-02-25T07:37:00.864Z,5.43
2019-02-25T07:39:44.654Z,4.40
2019-02-25T07:42:12.410Z,5.90
2019-02-25T07:44:54.088Z,5.37
2019-02-25T07:47:24.222Z,4.47
2019-02-25T07:49:55.023Z,4.97
2019-02-25T07:52:23.093Z,4.67
2019-02-25T07:54:55.926Z,6.40
2019-02-25T07:57:24.416Z,5.27
2019-02-25T07:59:52.166Z,3.30
2019-02-25T08:02:20.236Z,4.73
2019-02-25T08:04:48.002Z,6.37
2019-02-25T08:07:27.036Z,4.43
2019-02-25T08:09:59.838Z,6.17
2019-02-25T08:12:27.789Z,5.03
2019-02-25T08:15:09.666Z,5.10
2019-02-25T08:17:51.584Z,5.67
2019-02-25T08:20:21.698Z,2.17
2019-02-25T08:22:51.462Z,6.33
2019-02-25T08:25:33.408Z,5.63
2019-02-25T08:28:02.197Z,7.23
2019-02-25T08:30:29.907Z,5.57
2019-02-25T08:32:59.775Z,1.40
2019-02-25T08:38:49.375Z,10.00
2019-02-25T08:41:31.374Z,8.73
2019-02-25T08:43:59.971Z,6.53
2019-02-25T08:46:30.811Z,9.07
2019-02-25T08:48:57.947Z,9.27
2019-02-25T08:51:24.999Z,8.83
2019-02-25T08:53:52.042Z,6.13
2019-02-25T08:56:19.034Z,8.77
2019-02-25T08:58:46.040Z,6.53
2019-02-25T09:01:13.086Z,7.17
2019-02-25T09:03:41.476Z,8.07
2019-02-25T09:06:08.617Z,8.10
2019-02-25T09:08:35.689Z,5.07
2019-02-25T09:11:02.824Z,8.40
2019-02-25T09:13:29.871Z,8.43
2019-02-25T09:15:56.913Z,8.43
2019-02-25T09:18:23.969Z,6.70
2019-02-25T09:20:51.013Z,8.23
2019-02-25T09:23:18.059Z,7.57
2019-02-25T09:25:45.112Z,7.40
2019-02-25T09:28:12.155Z,9.17
2019-02-25T09:30:39.207Z,8.80
2019-02-25T09:33:06.262Z,8.63
2019-02-25T09:35:33.204Z,16.93
2019-02-25T09:38:00.253Z,10.23
2019-02-25T09:40:27.299Z,9.30
2019-02-25T09:42:54.348Z,7.83
2019-02-25T09:45:22.015Z,8.93
2019-02-25T09:47:49.020Z,1.83
2019-02-25T09:50:18.050Z,7.37
2019-02-25T09:52:45.146Z,5.13
2019-02-25T09:55:14.400Z,6.17
2019-02-25T09:57:41.455Z,7.87
2019-02-25T10:00:10.503Z,4.37
2019-02-25T10:02:37.491Z,6.97
2019-02-25T10:05:04.541Z,6.23
2019-02-25T10:07:31.594Z,9.63
2019-02-25T10:09:58.636Z,3.80
2019-02-25T10:12:26.547Z,7.80
2019-02-25T10:14:53.553Z,6.33
2019-02-25T10:17:23.799Z,8.70
2019-02-25T10:19:47.753Z,8.50
2019-02-25T10:22:18.126Z,6.70
2019-02-25T10:24:45.127Z,10.80
2019-02-25T10:27:12.181Z,4.77
2019-02-25T10:29:39.224Z,4.70
2019-02-25T10:32:06.583Z,6.93
2019-02-25T10:34:33.424Z,5.63
2019-02-25T10:37:00.477Z,6.37
2019-02-25T10:39:27.521Z,8.70
2019-02-25T10:41:55.945Z,5.23
2019-02-25T10:44:21.617Z,7.97
2019-02-25T10:46:49.104Z,10.03
2019-02-25T10:49:15.818Z,9.03
2019-02-25T10:51:45.653Z,12.13
2019-02-25T10:54:11.611Z,9.17
2019-02-25T10:56:38.718Z,9.13
2019-02-25T10:59:06.243Z,12.23
2019-02-25T11:01:32.907Z,8.07
2019-02-25T11:03:59.931Z,11.03
2019-02-25T11:06:28.982Z,12.33
2019-02-25T11:08:56.098Z,12.57
2019-02-25T11:11:25.392Z,11.73
2019-02-25T11:13:51.320Z,11.50
2019-02-25T11:16:20.468Z,11.63
2019-02-25T11:18:46.558Z,12.50
2019-02-25T11:21:13.592Z,11.50
2019-02-25T11:23:40.645Z,11.27
2019-02-25T11:26:09.281Z,12.50
2019-02-25T11:28:38.639Z,12.97
2019-02-25T11:31:03.678Z,13.27
2019-02-25T11:33:33.936Z,12.20
2019-02-25T11:35:58.143Z,12.33
2019-02-25T11:38:26.109Z,12.23
2019-02-25T11:40:52.767Z,13.87
2019-02-25T11:43:21.617Z,13.93
2019-02-25T11:45:47.572Z,12.80
2019-02-25T11:50:47.909Z,12.90
2019-02-25T11:53:14.952Z,10.07
2019-02-25T11:55:43.746Z,12.77
2019-02-25T11:58:11.124Z,14.00
2019-02-25T12:00:41.506Z,12.70
2019-02-25T12:03:08.580Z,12.50
2019-02-25T12:05:35.621Z,12.57
2019-02-25T12:08:02.677Z,9.33
2019-02-25T12:10:29.667Z,12.43
2019-02-25T12:12:56.616Z,13.97
2019-02-25T12:15:23.718Z,11.30
2019-02-25T12:17:50.761Z,12.40
2019-02-25T12:20:17.810Z,11.90
2019-02-25T12:22:45.065Z,13.83
2019-02-25T12:25:14.899Z,13.03
2019-02-25T12:27:41.932Z,13.17
2019-02-25T12:30:11.128Z,13.63
2019-02-25T12:32:38.174Z,14.40
2019-02-25T12:35:05.327Z,12.87
2019-02-25T12:37:32.581Z,13.93
2019-02-25T12:39:59.631Z,11.80
2019-02-25T12:42:26.682Z,13.30
2019-02-25T12:44:53.675Z,12.33
2019-02-25T12:47:20.749Z,11.50
2019-02-25T12:49:48.899Z,3.75
2019-02-25T12:52:15.997Z,10.80
2019-02-25T12:54:43.091Z,11.55
2019-02-25T12:57:12.615Z,12.55
2019-02-25T12:59:39.721Z,12.77
2019-02-25T13:02:06.852Z,13.15
2019-02-25T13:04:33.919Z,12.75
2019-02-25T13:07:01.057Z,9.50
2019-02-25T13:09:28.212Z,13.43
2019-02-25T13:11:55.252Z,9.85
2019-02-25T13:14:22.383Z,9.95
2019-02-25T13:16:49.504Z,14.43
2019-02-25T13:19:16.505Z,15.38
2019-02-25T13:21:47.803Z,10.52
2019-02-25T13:24:14.911Z,10.52
2019-02-25T13:26:42.366Z,10.52
2019-02-25T13:29:09.389Z,9.45
2019-02-25T13:31:36.453Z,12.13
2019-02-25T13:34:03.911Z,11.70
2019-02-25T13:36:31.188Z,12.00
2019-02-25T13:38:58.214Z,11.30
2019-02-25T13:41:27.291Z,11.93
2019-02-25T13:43:54.359Z,11.63
2019-02-25T13:46:21.410Z,11.05
2019-02-25T13:48:49.535Z,12.50
2019-02-25T13:51:16.734Z,12.90
2019-02-25T13:53:43.852Z,12.13
2019-02-25T13:56:11.021Z,12.65
2019-02-25T13:58:38.186Z,12.07
2019-02-25T14:01:05.341Z,10.15
2019-02-25T14:03:32.387Z,10.38
2019-02-25T14:05:59.453Z,11.43
2019-02-25T14:08:26.592Z,12.35
2019-02-25T14:10:53.635Z,17.35
2019-02-25T14:13:21.510Z,18.50
2019-02-25T14:15:48.619Z,15.05
2019-02-25T14:18:15.703Z,17.95
2019-02-25T14:20:42.853Z,16.98
2019-02-25T14:23:10.003Z,17.33
2019-02-25T14:25:38.345Z,17.50
2019-02-25T14:28:07.942Z,17.75
2019-02-25T14:30:33.542Z,18.00
2019-02-25T14:32:58.928Z,18.37
2019-02-25T14:35:28.484Z,18.17
2019-02-25T14:37:54.246Z,17.37
2019-02-25T14:40:21.734Z,17.77
2019-02-25T14:42:49.415Z,17.00
2019-02-25T14:45:19.681Z,18.15
2019-02-25T14:47:44.552Z,18.17
2019-02-25T14:50:10.463Z,18.35
2019-02-25T14:52:40.840Z,19.00
2019-02-25T14:55:09.401Z,17.27
2019-02-25T14:57:35.531Z,17.00
2019-02-25T15:00:03.152Z,17.75
2019-02-25T15:02:30.258Z,17.25
2019-02-25T15:04:57.420Z,17.67
2019-02-25T15:07:24.505Z,17.70
2019-02-25T15:09:51.834Z,17.02
2019-02-25T15:12:20.681Z,17.98
2019-02-25T15:14:46.121Z,17.23
2019-02-25T15:17:14.814Z,17.33
2019-02-25T15:19:40.861Z,16.60
2019-02-25T15:22:09.988Z,18.15
2019-02-25T15:24:37.080Z,17.05
2019-02-25T15:27:06.230Z,18.08
2019-02-25T15:29:31.699Z,18.17
2019-02-25T15:31:59.347Z,19.52
2019-02-25T15:34:27.907Z,18.52
2019-02-25T15:36:56.422Z,19.80
2019-02-25T15:39:23.510Z,17.85
2019-02-25T15:41:50.979Z,17.48
2019-02-25T15:44:16.637Z,17.70
2019-02-25T15:46:43.788Z,18.35
2019-02-25T15:49:12.845Z,17.27
2019-02-25T15:51:39.099Z,17.23
2019-02-25T15:54:05.346Z,17.92
2019-02-25T15:56:32.392Z,17.67
2019-02-25T15:58:59.445Z,17.63
2019-02-25T16:01:26.488Z,18.27
2019-02-25T16:03:56.486Z,17.80
2019-02-25T16:06:20.687Z,19.17
2019-02-25T16:08:50.015Z,19.90
2019-02-25T16:11:16.320Z,19.43
2019-02-25T16:13:41.937Z,19.53
2019-02-25T16:16:09.087Z,19.63
2019-02-25T16:18:37.058Z,20.47
2019-02-25T16:21:04.211Z,21.23
2019-02-25T16:23:34.125Z,21.77
2019-02-25T16:25:59.434Z,20.90
2019-02-25T16:28:26.547Z,19.83
2019-02-25T16:30:53.652Z,20.33
2019-02-25T16:33:20.791Z,19.87
2019-02-25T16:35:47.832Z,19.80
2019-02-25T16:38:14.982Z,20.60
2019-02-25T16:40:42.139Z,19.87
2019-02-25T16:43:10.494Z,21.20
2019-02-25T16:45:37.903Z,21.00
2019-02-25T16:48:03.794Z,20.87
2019-02-25T16:50:30.944Z,20.97
2019-02-25T16:52:58.091Z,21.47
2019-02-25T16:55:27.372Z,20.67
2019-02-25T16:57:52.299Z,19.73
2019-02-25T17:00:24.846Z,21.17
2019-02-25T17:02:48.191Z,22.77
2019-02-25T17:05:15.286Z,21.73
2019-02-25T17:07:43.099Z,21.87
2019-02-25T17:10:12.374Z,20.97
2019-02-25T17:12:39.515Z,20.57
2019-02-25T17:15:09.968Z,22.23
2019-02-25T17:17:34.825Z,21.93
2019-02-25T17:20:01.881Z,22.63
2019-02-25T17:22:29.988Z,22.43
2019-02-25T17:25:03.005Z,21.13
2019-02-25T17:27:31.416Z,21.73
2019-02-25T17:29:59.838Z,25.27
2019-02-25T17:32:25.571Z,23.37
2019-02-25T17:34:52.900Z,24.07
2019-02-25T17:37:20.030Z,23.53
2019-02-25T17:39:48.074Z,22.40
2019-02-25T17:42:15.424Z,23.07
2019-02-25T17:44:43.946Z,24.03
2019-02-25T17:47:11.424Z,23.07
2019-02-25T17:49:40.614Z,23.60
2019-02-25T17:52:07.969Z,24.93
2019-02-25T17:54:35.984Z,25.97
2019-02-25T17:57:03.289Z,24.53
2019-02-25T18:02:13.095Z,24.80
2019-02-25T18:04:42.232Z,25.47
2019-02-25T18:07:09.348Z,24.70
2019-02-25T18:09:38.029Z,24.93
2019-02-25T18:12:04.321Z,24.10
2019-02-25T18:14:30.843Z,24.03
2019-02-25T18:16:57.993Z,23.70
2019-02-25T18:19:27.045Z,24.80
2019-02-25T18:21:52.306Z,27.40
2019-02-25T18:24:19.546Z,28.27
2019-02-25T18:26:48.660Z,28.10
2019-02-25T18:29:16.153Z,28.50
2019-02-25T18:31:42.962Z,23.30
2019-02-25T18:34:11.600Z,28.53
2019-02-25T18:36:37.310Z,29.90
2019-02-25T18:39:04.292Z,31.57
2019-02-25T18:41:34.315Z,33.63
2019-02-25T18:44:00.437Z,30.30
2019-02-25T18:46:53.433Z,25.30
2019-02-25T18:49:42.283Z,23.80
2019-02-25T18:52:31.844Z,25.33
2019-02-25T18:54:57.366Z,33.63
2019-02-25T18:57:25.294Z,28.73
2019-02-25T18:59:51.752Z,26.03
2019-02-25T19:02:20.136Z,25.73
2019-02-25T19:04:46.071Z,29.90
2019-02-25T19:07:15.194Z,27.37
2019-02-25T19:09:43.097Z,27.93
2019-02-25T19:12:09.550Z,28.20
2019-02-25T19:14:36.564Z,26.47
2019-02-25T19:17:06.572Z,32.87
2019-02-25T19:20:04.492Z,27.90
2019-02-25T19:23:00.826Z,25.43
2019-02-25T19:25:54.429Z,109.43
2019-02-25T19:28:50.077Z,21.63
2019-02-25T19:31:39.888Z,24.47
2019-02-25T19:34:29.048Z,25.80
2019-02-25T19:37:21.658Z,29.00
2019-02-25T19:40:14.411Z,32.17
2019-02-25T19:43:05.987Z,18.20
2019-02-25T19:45:59.967Z,24.60
2019-02-25T19:48:49.267Z,80.93
2019-02-25T19:51:43.393Z,26.73
2019-02-25T19:57:01.476Z,33.57
2019-02-25T19:59:34.561Z,41.63
2019-02-25T20:02:02.135Z,27.63
2019-02-25T20:04:33.497Z,25.73
2019-02-25T20:07:01.849Z,32.97
2019-02-25T20:09:32.373Z,29.33
2019-02-25T20:12:05.867Z,23.97
2019-02-25T20:14:37.828Z,23.03
2019-02-25T20:17:09.909Z,20.70
2019-02-25T20:19:39.146Z,23.00
2019-02-25T20:22:04.630Z,21.90
2019-02-25T20:24:33.318Z,23.07
2019-02-25T20:27:04.672Z,20.87
2019-02-25T20:29:55.459Z,18.73
2019-02-25T20:32:21.190Z,19.93
2019-02-25T20:34:50.108Z,20.70
2019-02-25T20:37:19.009Z,23.97
2019-02-25T20:39:45.067Z,24.40
2019-02-25T20:42:15.022Z,30.47
2019-02-25T20:44:41.350Z,29.87
2019-02-25T20:47:11.853Z,50.47
2019-02-25T20:49:39.235Z,18.97
2019-02-25T20:52:07.306Z,16.67
2019-02-25T20:54:40.866Z,17.20
2019-02-25T20:57:05.506Z,17.37
2019-02-25T20:59:53.090Z,18.00
2019-02-25T21:02:21.125Z,18.30
2019-02-25T21:04:52.407Z,19.90
2019-02-25T21:07:19.955Z,19.93
2019-02-25T21:09:47.164Z,26.33
2019-02-25T21:12:19.641Z,23.90
2019-02-25T21:14:44.970Z,30.93
2019-02-25T21:17:13.702Z,23.27
2019-02-25T21:19:45.074Z,33.87
2019-02-25T21:22:14.754Z,31.90
2019-02-25T21:24:41.955Z,34.80
2019-02-25T21:27:11.543Z,33.27
2019-02-25T21:29:39.123Z,30.77
2019-02-25T21:32:05.757Z,26.10
2019-02-25T21:34:33.000Z,23.23
2019-02-25T21:37:00.828Z,26.80
2019-02-25T21:39:27.105Z,25.67
2019-02-25T21:41:54.158Z,26.30
2019-02-25T21:44:21.818Z,30.07
2019-02-25T21:46:51.879Z,30.90
2019-02-25T21:49:15.550Z,30.27
2019-02-25T21:51:43.738Z,29.60
2019-02-25T21:54:12.572Z,30.30
2019-02-25T21:56:39.533Z,30.77
2019-02-25T21:59:08.267Z,30.10
2019-02-25T22:01:35.154Z,29.77
2019-02-25T22:04:01.483Z,29.40
2019-02-25T22:06:29.597Z,29.30
2019-02-25T22:08:56.812Z,28.83
2019-02-25T22:11:22.896Z,30.20
2019-02-25T22:13:50.500Z,30.77
2019-02-25T22:16:18.170Z,30.63
2019-02-25T22:18:45.208Z,31.33
2019-02-25T22:21:14.197Z,30.50
2019-02-25T22:23:39.817Z,28.70
2019-02-25T22:26:06.871Z,26.50
2019-02-25T22:28:37.618Z,20.87
2019-02-25T22:31:03.524Z,22.57
2019-02-25T22:33:30.594Z,22.37
2019-02-25T22:35:58.648Z,19.37
2019-02-25T22:38:25.794Z,21.13
2019-02-25T22:40:53.719Z,18.40
2019-02-25T22:43:20.830Z,19.67
2019-02-25T22:45:47.159Z,20.00
2019-02-25T22:48:31.907Z,20.07
2019-02-25T22:51:00.678Z,19.03
2019-02-25T22:53:26.126Z,22.33
2019-02-25T22:55:54.747Z,23.17
2019-02-25T22:58:20.308Z,24.57
2019-02-25T23:00:48.720Z,24.40
2019-02-25T23:03:18.521Z,21.37
2019-02-25T23:05:45.994Z,22.33
2019-02-25T23:08:13.182Z,23.17
2019-02-25T23:10:42.008Z,24.50
2019-02-25T23:13:07.551Z,24.63
2019-02-25T23:15:35.208Z,26.23
2019-02-25T23:18:05.529Z,23.73
2019-02-25T23:20:31.713Z,21.80
2019-02-25T23:23:00.049Z,22.87
2019-02-25T23:25:26.473Z,20.03
2019-02-25T23:27:55.642Z,21.50
2019-02-25T23:30:23.442Z,21.80
2019-02-25T23:32:52.224Z,20.90
2019-02-25T23:35:18.388Z,20.83
2019-02-25T23:37:47.452Z,21.87
2019-02-25T23:40:14.506Z,21.60
2019-02-25T23:42:41.864Z,21.97
2019-02-25T23:45:08.809Z,22.53
2019-02-25T23:47:37.759Z,22.83
2019-02-25T23:50:27.374Z,22.03
2019-02-25T23:52:54.527Z,21.30
2019-02-25T23:55:24.325Z,19.73
2019-02-25T23:57:49.935Z,19.83
